sensor_id;sensor_type;location;lat;lon;timestamp;P1;durP1;ratioP1;P2;durP2;ratioP2
31836;SDS011;18401;49.344;6.240;2023-06-04T00:01:21;6.40;;;3.28;;
31836;SDS011;18401;49.344;6.240;2023-06-04T00:03:47;5.85;;;3.33;;
31836;SDS011;18401;49.344;6.240;2023-06-04T00:06:13;7.15;;;3.50;;
31836;SDS011;18401;49.344;6.240;2023-06-04T00:08:38;5.03;;;3.03;;
31836;SDS011;18401;49.344;6.240;2023-06-04T00:11:04;3.47;;;3.00;;
31836;SDS011;18401;49.344;6.240;2023-06-04T00:13:30;4.72;;;3.17;;
31836;SDS011;18401;49.344;6.240;2023-06-04T00:15:55;5.75;;;3.58;;
31836;SDS011;18401;49.344;6.240;2023-06-04T00:18:21;6.45;;;3.30;;
31836;SDS011;18401;49.344;6.240;2023-06-04T00:20:47;6.30;;;3.38;;
31836;SDS011;18401;49.344;6.240;2023-06-04T00:23:12;7.15;;;3.60;;
31836;SDS011;18401;49.344;6.240;2023-06-04T00:25:38;7.60;;;3.60;;
31836;SDS011;18401;49.344;6.240;2023-06-04T00:28:04;6.30;;;4.18;;
31836;SDS011;18401;49.344;6.240;2023-06-04T00:30:29;4.60;;;3.10;;
31836;SDS011;18401;49.344;6.240;2023-06-04T00:32:56;4.28;;;2.95;;
31836;SDS011;18401;49.344;6.240;2023-06-04T00:35:21;8.13;;;3.55;;
31836;SDS011;18401;49.344;6.240;2023-06-04T00:37:47;5.05;;;3.30;;
31836;SDS011;18401;49.344;6.240;2023-06-04T00:40:13;6.07;;;3.25;;
31836;SDS011;18401;49.344;6.240;2023-06-04T00:42:39;5.38;;;3.33;;
31836;SDS011;18401;49.344;6.240;2023-06-04T00:45:05;7.97;;;3.67;;
31836;SDS011;18401;49.344;6.240;2023-06-04T00:47:34;6.63;;;3.85;;
31836;SDS011;18401;49.344;6.240;2023-06-04T00:50:00;6.55;;;3.40;;
31836;SDS011;18401;49.344;6.240;2023-06-04T00:52:26;9.15;;;3.97;;
31836;SDS011;18401;49.344;6.240;2023-06-04T00:54:52;6.35;;;3.35;;
31836;SDS011;18401;49.344;6.240;2023-06-04T00:57:20;4.03;;;3.03;;
31836;SDS011;18401;49.344;6.240;2023-06-04T00:59:47;6.28;;;3.67;;
31836;SDS011;18401;49.344;6.240;2023-06-04T01:02:14;12.15;;;3.45;;
31836;SDS011;18401;49.344;6.240;2023-06-04T01:07:35;7.57;;;3.22;;
31836;SDS011;18401;49.344;6.240;2023-06-04T01:10:02;5.00;;;3.30;;
31836;SDS011;18401;49.344;6.240;2023-06-04T01:12:28;5.07;;;3.25;;
31836;SDS011;18401;49.344;6.240;2023-06-04T01:14:53;8.32;;;2.97;;
31836;SDS011;18401;49.344;6.240;2023-06-04T01:17:20;5.80;;;3.17;;
31836;SDS011;18401;49.344;6.240;2023-06-04T01:22:32;5.07;;;2.88;;
31836;SDS011;18401;49.344;6.240;2023-06-04T01:27:52;4.60;;;2.47;;
31836;SDS011;18401;49.344;6.240;2023-06-04T01:30:30;4.63;;;2.80;;
31836;SDS011;18401;49.344;6.240;2023-06-04T01:32:57;5.85;;;2.40;;
31836;SDS011;18401;49.344;6.240;2023-06-04T01:35:24;4.82;;;2.42;;
31836;SDS011;18401;49.344;6.240;2023-06-04T01:37:51;4.30;;;2.42;;
31836;SDS011;18401;49.344;6.240;2023-06-04T01:40:17;3.38;;;2.22;;
31836;SDS011;18401;49.344;6.240;2023-06-04T01:42:43;3.22;;;2.33;;
31836;SDS011;18401;49.344;6.240;2023-06-04T01:45:09;3.50;;;2.22;;
31836;SDS011;18401;49.344;6.240;2023-06-04T01:47:35;4.50;;;2.72;;
31836;SDS011;18401;49.344;6.240;2023-06-04T01:50:02;6.07;;;2.40;;
31836;SDS011;18401;49.344;6.240;2023-06-04T01:52:38;5.35;;;2.20;;
31836;SDS011;18401;49.344;6.240;2023-06-04T01:55:05;2.63;;;2.15;;
31836;SDS011;18401;49.344;6.240;2023-06-04T01:57:33;4.13;;;2.40;;
31836;SDS011;18401;49.344;6.240;2023-06-04T02:00:00;3.80;;;2.40;;
31836;SDS011;18401;49.344;6.240;2023-06-04T02:02:26;2.78;;;2.03;;
31836;SDS011;18401;49.344;6.240;2023-06-04T02:04:52;4.78;;;2.20;;
31836;SDS011;18401;49.344;6.240;2023-06-04T02:07:18;3.28;;;2.22;;
31836;SDS011;18401;49.344;6.240;2023-06-04T02:09:47;2.65;;;2.17;;
31836;SDS011;18401;49.344;6.240;2023-06-04T02:12:13;6.55;;;2.58;;
31836;SDS011;18401;49.344;6.240;2023-06-04T02:14:39;4.10;;;2.40;;
31836;SDS011;18401;49.344;6.240;2023-06-04T02:17:07;2.63;;;2.22;;
31836;SDS011;18401;49.344;6.240;2023-06-04T02:19:40;3.55;;;1.80;;
31836;SDS011;18401;49.344;6.240;2023-06-04T02:22:15;2.67;;;1.90;;
31836;SDS011;18401;49.344;6.240;2023-06-04T02:24:41;3.70;;;2.03;;
31836;SDS011;18401;49.344;6.240;2023-06-04T02:27:07;4.13;;;2.20;;
31836;SDS011;18401;49.344;6.240;2023-06-04T02:29:33;2.40;;;1.90;;
31836;SDS011;18401;49.344;6.240;2023-06-04T02:32:00;4.13;;;2.00;;
31836;SDS011;18401;49.344;6.240;2023-06-04T02:34:26;3.63;;;2.10;;
31836;SDS011;18401;49.344;6.240;2023-06-04T02:36:52;3.42;;;2.17;;
31836;SDS011;18401;49.344;6.240;2023-06-04T02:39:18;3.60;;;2.28;;
31836;SDS011;18401;49.344;6.240;2023-06-04T02:41:45;3.85;;;1.75;;
31836;SDS011;18401;49.344;6.240;2023-06-04T02:44:11;2.60;;;1.70;;
31836;SDS011;18401;49.344;6.240;2023-06-04T02:46:37;3.72;;;2.13;;
31836;SDS011;18401;49.344;6.240;2023-06-04T02:49:03;5.30;;;1.67;;
31836;SDS011;18401;49.344;6.240;2023-06-04T02:51:29;3.97;;;2.22;;
31836;SDS011;18401;49.344;6.240;2023-06-04T02:53:54;5.00;;;2.10;;
31836;SDS011;18401;49.344;6.240;2023-06-04T02:56:20;4.10;;;2.10;;
31836;SDS011;18401;49.344;6.240;2023-06-04T02:58:50;2.08;;;1.88;;
31836;SDS011;18401;49.344;6.240;2023-06-04T03:01:24;4.20;;;2.10;;
31836;SDS011;18401;49.344;6.240;2023-06-04T03:03:51;3.90;;;2.25;;
31836;SDS011;18401;49.344;6.240;2023-06-04T03:06:18;3.33;;;2.17;;
31836;SDS011;18401;49.344;6.240;2023-06-04T03:08:50;2.83;;;2.00;;
31836;SDS011;18401;49.344;6.240;2023-06-04T03:11:17;2.38;;;1.83;;
31836;SDS011;18401;49.344;6.240;2023-06-04T03:13:45;2.60;;;2.08;;
31836;SDS011;18401;49.344;6.240;2023-06-04T03:16:11;3.90;;;2.03;;
31836;SDS011;18401;49.344;6.240;2023-06-04T03:18:39;4.65;;;2.08;;
31836;SDS011;18401;49.344;6.240;2023-06-04T03:21:05;5.63;;;2.20;;
31836;SDS011;18401;49.344;6.240;2023-06-04T03:23:32;4.65;;;2.50;;
31836;SDS011;18401;49.344;6.240;2023-06-04T03:25:59;4.90;;;2.20;;
31836;SDS011;18401;49.344;6.240;2023-06-04T03:28:26;5.60;;;1.90;;
31836;SDS011;18401;49.344;6.240;2023-06-04T03:30:51;3.50;;;1.92;;
31836;SDS011;18401;49.344;6.240;2023-06-04T03:33:17;7.50;;;2.05;;
31836;SDS011;18401;49.344;6.240;2023-06-04T03:35:43;2.95;;;2.20;;
31836;SDS011;18401;49.344;6.240;2023-06-04T03:38:08;7.53;;;2.83;;
31836;SDS011;18401;49.344;6.240;2023-06-04T03:40:34;3.20;;;1.98;;
31836;SDS011;18401;49.344;6.240;2023-06-04T03:43:00;2.97;;;2.00;;
31836;SDS011;18401;49.344;6.240;2023-06-04T03:45:26;3.38;;;1.90;;
31836;SDS011;18401;49.344;6.240;2023-06-04T03:47:51;2.60;;;2.10;;
31836;SDS011;18401;49.344;6.240;2023-06-04T03:50:17;6.32;;;2.63;;
31836;SDS011;18401;49.344;6.240;2023-06-04T03:52:44;2.72;;;1.60;;
31836;SDS011;18401;49.344;6.240;2023-06-04T03:55:09;6.82;;;1.40;;
31836;SDS011;18401;49.344;6.240;2023-06-04T03:57:36;1.88;;;1.58;;
31836;SDS011;18401;49.344;6.240;2023-06-04T04:00:04;2.78;;;1.75;;
31836;SDS011;18401;49.344;6.240;2023-06-04T04:02:31;6.78;;;1.50;;
31836;SDS011;18401;49.344;6.240;2023-06-04T04:04:56;3.00;;;1.65;;
31836;SDS011;18401;49.344;6.240;2023-06-04T04:07:22;1.70;;;1.60;;
31836;SDS011;18401;49.344;6.240;2023-06-04T04:09:49;4.93;;;1.80;;
31836;SDS011;18401;49.344;6.240;2023-06-04T04:12:16;4.72;;;1.90;;
31836;SDS011;18401;49.344;6.240;2023-06-04T04:14:42;2.45;;;2.08;;
31836;SDS011;18401;49.344;6.240;2023-06-04T04:17:07;3.15;;;1.88;;
31836;SDS011;18401;49.344;6.240;2023-06-04T04:19:33;3.35;;;2.13;;
31836;SDS011;18401;49.344;6.240;2023-06-04T04:21:59;3.92;;;2.03;;
31836;SDS011;18401;49.344;6.240;2023-06-04T04:24:25;4.13;;;1.75;;
31836;SDS011;18401;49.344;6.240;2023-06-04T04:26:52;2.08;;;1.80;;
31836;SDS011;18401;49.344;6.240;2023-06-04T04:29:19;3.97;;;1.80;;
31836;SDS011;18401;49.344;6.240;2023-06-04T04:31:50;1.80;;;1.50;;
31836;SDS011;18401;49.344;6.240;2023-06-04T04:34:16;3.53;;;1.83;;
31836;SDS011;18401;49.344;6.240;2023-06-04T04:36:42;3.72;;;1.63;;
31836;SDS011;18401;49.344;6.240;2023-06-04T04:39:09;1.77;;;1.20;;
31836;SDS011;18401;49.344;6.240;2023-06-04T04:41:35;1.38;;;1.27;;
31836;SDS011;18401;49.344;6.240;2023-06-04T04:44:04;2.25;;;1.60;;
31836;SDS011;18401;49.344;6.240;2023-06-04T04:46:31;1.95;;;1.60;;
31836;SDS011;18401;49.344;6.240;2023-06-04T04:48:57;3.33;;;1.60;;
31836;SDS011;18401;49.344;6.240;2023-06-04T04:51:22;1.67;;;1.45;;
31836;SDS011;18401;49.344;6.240;2023-06-04T04:53:48;2.85;;;1.63;;
31836;SDS011;18401;49.344;6.240;2023-06-04T04:56:14;4.43;;;1.48;;
31836;SDS011;18401;49.344;6.240;2023-06-04T04:58:40;3.00;;;1.50;;
31836;SDS011;18401;49.344;6.240;2023-06-04T05:01:05;1.98;;;1.38;;
31836;SDS011;18401;49.344;6.240;2023-06-04T05:03:31;4.10;;;1.50;;
31836;SDS011;18401;49.344;6.240;2023-06-04T05:05:56;2.67;;;1.70;;
31836;SDS011;18401;49.344;6.240;2023-06-04T05:08:22;3.85;;;1.60;;
31836;SDS011;18401;49.344;6.240;2023-06-04T05:10:48;7.03;;;1.70;;
31836;SDS011;18401;49.344;6.240;2023-06-04T05:13:15;1.88;;;1.20;;
31836;SDS011;18401;49.344;6.240;2023-06-04T05:15:41;2.60;;;1.25;;
31836;SDS011;18401;49.344;6.240;2023-06-04T05:18:07;2.60;;;1.35;;
31836;SDS011;18401;49.344;6.240;2023-06-04T05:20:33;3.80;;;1.33;;
31836;SDS011;18401;49.344;6.240;2023-06-04T05:23:02;3.42;;;1.48;;
31836;SDS011;18401;49.344;6.240;2023-06-04T05:25:29;2.33;;;1.23;;
31836;SDS011;18401;49.344;6.240;2023-06-04T05:27:55;2.03;;;1.10;;
31836;SDS011;18401;49.344;6.240;2023-06-04T05:30:21;8.25;;;1.20;;
31836;SDS011;18401;49.344;6.240;2023-06-04T05:32:47;4.40;;;1.10;;
31836;SDS011;18401;49.344;6.240;2023-06-04T05:35:15;1.75;;;1.23;;
31836;SDS011;18401;49.344;6.240;2023-06-04T05:37:42;2.70;;;1.00;;
31836;SDS011;18401;49.344;6.240;2023-06-04T05:40:10;5.57;;;1.17;;
31836;SDS011;18401;49.344;6.240;2023-06-04T05:42:37;2.40;;;1.02;;
31836;SDS011;18401;49.344;6.240;2023-06-04T05:45:04;1.67;;;1.00;;
31836;SDS011;18401;49.344;6.240;2023-06-04T05:47:30;2.10;;;1.00;;
31836;SDS011;18401;49.344;6.240;2023-06-04T05:49:56;2.05;;;1.13;;
31836;SDS011;18401;49.344;6.240;2023-06-04T05:52:22;3.72;;;0.90;;
31836;SDS011;18401;49.344;6.240;2023-06-04T05:54:48;1.70;;;1.05;;
31836;SDS011;18401;49.344;6.240;2023-06-04T05:57:14;3.33;;;1.20;;
31836;SDS011;18401;49.344;6.240;2023-06-04T05:59:40;1.75;;;1.33;;
31836;SDS011;18401;49.344;6.240;2023-06-04T06:02:05;2.63;;;1.05;;
31836;SDS011;18401;49.344;6.240;2023-06-04T06:04:31;1.67;;;1.15;;
31836;SDS011;18401;49.344;6.240;2023-06-04T06:06:57;1.23;;;0.90;;
31836;SDS011;18401;49.344;6.240;2023-06-04T06:09:22;2.03;;;0.90;;
31836;SDS011;18401;49.344;6.240;2023-06-04T06:11:48;4.25;;;1.17;;
31836;SDS011;18401;49.344;6.240;2023-06-04T06:14:14;2.25;;;1.15;;
31836;SDS011;18401;49.344;6.240;2023-06-04T06:16:40;1.15;;;0.85;;
31836;SDS011;18401;49.344;6.240;2023-06-04T06:19:05;1.38;;;1.20;;
31836;SDS011;18401;49.344;6.240;2023-06-04T06:21:31;1.50;;;1.10;;
31836;SDS011;18401;49.344;6.240;2023-06-04T06:23:57;0.93;;;0.88;;
31836;SDS011;18401;49.344;6.240;2023-06-04T06:26:22;1.48;;;1.02;;
31836;SDS011;18401;49.344;6.240;2023-06-04T06:28:50;5.10;;;1.05;;
31836;SDS011;18401;49.344;6.240;2023-06-04T06:31:16;1.13;;;1.02;;
31836;SDS011;18401;49.344;6.240;2023-06-04T06:33:41;3.63;;;1.20;;
31836;SDS011;18401;49.344;6.240;2023-06-04T06:36:07;3.60;;;1.15;;
31836;SDS011;18401;49.344;6.240;2023-06-04T06:38:36;1.92;;;0.90;;
31836;SDS011;18401;49.344;6.240;2023-06-04T06:41:02;2.78;;;1.60;;
31836;SDS011;18401;49.344;6.240;2023-06-04T06:43:27;8.10;;;3.92;;
31836;SDS011;18401;49.344;6.240;2023-06-04T06:45:53;5.05;;;1.13;;
31836;SDS011;18401;49.344;6.240;2023-06-04T06:48:19;4.22;;;1.25;;
31836;SDS011;18401;49.344;6.240;2023-06-04T06:50:45;3.25;;;1.20;;
31836;SDS011;18401;49.344;6.240;2023-06-04T06:53:11;3.53;;;1.10;;
31836;SDS011;18401;49.344;6.240;2023-06-04T06:55:36;4.82;;;1.13;;
31836;SDS011;18401;49.344;6.240;2023-06-04T06:58:02;2.13;;;1.08;;
31836;SDS011;18401;49.344;6.240;2023-06-04T07:00:28;3.42;;;1.00;;
31836;SDS011;18401;49.344;6.240;2023-06-04T07:02:53;4.03;;;0.98;;
31836;SDS011;18401;49.344;6.240;2023-06-04T07:05:19;4.22;;;1.05;;
31836;SDS011;18401;49.344;6.240;2023-06-04T07:07:45;1.10;;;1.00;;
31836;SDS011;18401;49.344;6.240;2023-06-04T07:10:11;4.13;;;3.08;;
31836;SDS011;18401;49.344;6.240;2023-06-04T07:12:38;2.13;;;0.95;;
31836;SDS011;18401;49.344;6.240;2023-06-04T07:15:04;1.45;;;0.88;;
31836;SDS011;18401;49.344;6.240;2023-06-04T07:17:31;1.35;;;1.02;;
31836;SDS011;18401;49.344;6.240;2023-06-04T07:19:57;1.33;;;0.90;;
31836;SDS011;18401;49.344;6.240;2023-06-04T07:22:23;4.85;;;1.00;;
31836;SDS011;18401;49.344;6.240;2023-06-04T07:24:48;0.90;;;0.70;;
31836;SDS011;18401;49.344;6.240;2023-06-04T07:27:15;1.65;;;0.90;;
31836;SDS011;18401;49.344;6.240;2023-06-04T07:29:42;1.17;;;0.80;;
31836;SDS011;18401;49.344;6.240;2023-06-04T07:32:09;1.77;;;0.80;;
31836;SDS011;18401;49.344;6.240;2023-06-04T07:34:35;2.42;;;1.10;;
31836;SDS011;18401;49.344;6.240;2023-06-04T07:37:02;4.20;;;0.63;;
31836;SDS011;18401;49.344;6.240;2023-06-04T07:39:28;2.63;;;1.20;;
31836;SDS011;18401;49.344;6.240;2023-06-04T07:41:54;1.83;;;0.80;;
31836;SDS011;18401;49.344;6.240;2023-06-04T07:44:20;5.43;;;1.08;;
31836;SDS011;18401;49.344;6.240;2023-06-04T07:46:45;1.92;;;0.75;;
31836;SDS011;18401;49.344;6.240;2023-06-04T07:49:11;1.10;;;0.85;;
31836;SDS011;18401;49.344;6.240;2023-06-04T07:51:37;3.05;;;1.10;;
31836;SDS011;18401;49.344;6.240;2023-06-04T07:54:03;2.13;;;1.10;;
31836;SDS011;18401;49.344;6.240;2023-06-04T07:56:28;1.10;;;0.82;;
31836;SDS011;18401;49.344;6.240;2023-06-04T07:58:54;1.40;;;0.90;;
31836;SDS011;18401;49.344;6.240;2023-06-04T08:01:20;0.85;;;0.70;;
31836;SDS011;18401;49.344;6.240;2023-06-04T08:03:48;4.43;;;1.27;;
31836;SDS011;18401;49.344;6.240;2023-06-04T08:06:14;2.15;;;0.88;;
31836;SDS011;18401;49.344;6.240;2023-06-04T08:08:43;2.90;;;1.25;;
31836;SDS011;18401;49.344;6.240;2023-06-04T08:11:14;2.80;;;1.00;;
31836;SDS011;18401;49.344;6.240;2023-06-04T08:13:40;1.63;;;0.82;;
31836;SDS011;18401;49.344;6.240;2023-06-04T08:16:06;3.90;;;1.17;;
31836;SDS011;18401;49.344;6.240;2023-06-04T08:18:32;2.42;;;0.80;;
31836;SDS011;18401;49.344;6.240;2023-06-04T08:20:58;1.77;;;0.90;;
31836;SDS011;18401;49.344;6.240;2023-06-04T08:23:23;1.67;;;0.90;;
31836;SDS011;18401;49.344;6.240;2023-06-04T08:25:49;2.58;;;1.10;;
31836;SDS011;18401;49.344;6.240;2023-06-04T08:28:15;1.92;;;0.98;;
31836;SDS011;18401;49.344;6.240;2023-06-04T08:30:44;6.20;;;1.00;;
31836;SDS011;18401;49.344;6.240;2023-06-04T08:33:10;1.92;;;0.88;;
31836;SDS011;18401;49.344;6.240;2023-06-04T08:35:36;3.35;;;0.90;;
31836;SDS011;18401;49.344;6.240;2023-06-04T08:38:02;3.53;;;0.98;;
31836;SDS011;18401;49.344;6.240;2023-06-04T08:40:27;1.67;;;0.82;;
31836;SDS011;18401;49.344;6.240;2023-06-04T08:42:55;2.80;;;0.82;;
31836;SDS011;18401;49.344;6.240;2023-06-04T08:45:24;7.50;;;0.93;;
31836;SDS011;18401;49.344;6.240;2023-06-04T08:47:51;2.17;;;0.77;;
31836;SDS011;18401;49.344;6.240;2023-06-04T08:50:18;1.20;;;0.80;;
31836;SDS011;18401;49.344;6.240;2023-06-04T08:52:52;2.97;;;0.98;;
31836;SDS011;18401;49.344;6.240;2023-06-04T08:55:22;2.10;;;0.90;;
31836;SDS011;18401;49.344;6.240;2023-06-04T08:57:49;3.20;;;1.02;;
31836;SDS011;18401;49.344;6.240;2023-06-04T09:00:18;7.00;;;0.73;;
31836;SDS011;18401;49.344;6.240;2023-06-04T09:02:44;3.92;;;0.88;;
31836;SDS011;18401;49.344;6.240;2023-06-04T09:05:19;4.85;;;0.90;;
31836;SDS011;18401;49.344;6.240;2023-06-04T09:07:46;1.55;;;0.60;;
31836;SDS011;18401;49.344;6.240;2023-06-04T09:10:13;5.05;;;0.90;;
31836;SDS011;18401;49.344;6.240;2023-06-04T09:12:43;8.10;;;1.30;;
31836;SDS011;18401;49.344;6.240;2023-06-04T09:15:12;2.80;;;0.95;;
31836;SDS011;18401;49.344;6.240;2023-06-04T09:17:38;1.67;;;0.73;;
31836;SDS011;18401;49.344;6.240;2023-06-04T09:20:04;2.10;;;0.82;;
31836;SDS011;18401;49.344;6.240;2023-06-04T09:22:33;2.85;;;1.02;;
31836;SDS011;18401;49.344;6.240;2023-06-04T09:25:01;5.45;;;1.17;;
31836;SDS011;18401;49.344;6.240;2023-06-04T09:27:36;1.88;;;0.90;;
31836;SDS011;18401;49.344;6.240;2023-06-04T09:30:03;2.08;;;0.82;;
31836;SDS011;18401;49.344;6.240;2023-06-04T09:32:30;3.33;;;1.63;;
31836;SDS011;18401;49.344;6.240;2023-06-04T09:35:17;2.55;;;1.10;;
31836;SDS011;18401;49.344;6.240;2023-06-04T09:37:51;2.00;;;0.93;;
31836;SDS011;18401;49.344;6.240;2023-06-04T09:40:18;2.20;;;0.90;;
31836;SDS011;18401;49.344;6.240;2023-06-04T09:42:45;1.77;;;0.85;;
31836;SDS011;18401;49.344;6.240;2023-06-04T09:45:14;2.60;;;1.10;;
31836;SDS011;18401;49.344;6.240;2023-06-04T09:47:56;4.63;;;1.10;;
31836;SDS011;18401;49.344;6.240;2023-06-04T09:50:40;2.15;;;1.15;;
31836;SDS011;18401;49.344;6.240;2023-06-04T09:53:16;4.00;;;1.13;;
31836;SDS011;18401;49.344;6.240;2023-06-04T09:56:00;6.07;;;1.08;;
31836;SDS011;18401;49.344;6.240;2023-06-04T09:58:28;7.68;;;1.27;;
31836;SDS011;18401;49.344;6.240;2023-06-04T10:00:55;3.17;;;1.00;;
31836;SDS011;18401;49.344;6.240;2023-06-04T10:03:25;3.67;;;1.40;;
31836;SDS011;18401;49.344;6.240;2023-06-04T10:05:58;3.45;;;0.80;;
31836;SDS011;18401;49.344;6.240;2023-06-04T10:08:25;1.75;;;0.90;;
31836;SDS011;18401;49.344;6.240;2023-06-04T10:10:56;4.63;;;1.08;;
31836;SDS011;18401;49.344;6.240;2023-06-04T10:13:27;2.67;;;1.10;;
31836;SDS011;18401;49.344;6.240;2023-06-04T10:15:58;2.03;;;1.40;;
31836;SDS011;18401;49.344;6.240;2023-06-04T10:18:26;3.80;;;1.00;;
31836;SDS011;18401;49.344;6.240;2023-06-04T10:20:55;7.18;;;1.27;;
31836;SDS011;18401;49.344;6.240;2023-06-04T10:23:22;6.55;;;1.35;;
31836;SDS011;18401;49.344;6.240;2023-06-04T10:25:49;2.83;;;1.30;;
31836;SDS011;18401;49.344;6.240;2023-06-04T10:28:18;5.07;;;1.52;;
31836;SDS011;18401;49.344;6.240;2023-06-04T10:30:45;4.18;;;1.25;;
31836;SDS011;18401;49.344;6.240;2023-06-04T10:33:15;1.55;;;1.08;;
31836;SDS011;18401;49.344;6.240;2023-06-04T10:35:42;2.65;;;1.15;;
31836;SDS011;18401;49.344;6.240;2023-06-04T10:38:10;3.15;;;1.48;;
31836;SDS011;18401;49.344;6.240;2023-06-04T10:40:38;3.20;;;1.42;;
31836;SDS011;18401;49.344;6.240;2023-06-04T10:43:07;2.45;;;1.50;;
31836;SDS011;18401;49.344;6.240;2023-06-04T10:45:37;2.83;;;1.05;;
31836;SDS011;18401;49.344;6.240;2023-06-04T10:48:03;3.88;;;1.20;;
31836;SDS011;18401;49.344;6.240;2023-06-04T10:50:31;3.38;;;1.38;;
31836;SDS011;18401;49.344;6.240;2023-06-04T10:52:58;5.22;;;1.30;;
31836;SDS011;18401;49.344;6.240;2023-06-04T10:55:27;5.85;;;1.45;;
31836;SDS011;18401;49.344;6.240;2023-06-04T10:57:54;3.28;;;1.35;;
31836;SDS011;18401;49.344;6.240;2023-06-04T11:00:21;4.13;;;1.17;;
31836;SDS011;18401;49.344;6.240;2023-06-04T11:02:54;3.35;;;1.75;;
31836;SDS011;18401;49.344;6.240;2023-06-04T11:07:58;8.80;;;1.40;;
31836;SDS011;18401;49.344;6.240;2023-06-04T11:10:30;5.43;;;1.80;;
31836;SDS011;18401;49.344;6.240;2023-06-04T11:13:01;6.38;;;1.60;;
31836;SDS011;18401;49.344;6.240;2023-06-04T11:15:38;6.43;;;3.00;;
31836;SDS011;18401;49.344;6.240;2023-06-04T11:18:04;8.27;;;1.60;;
31836;SDS011;18401;49.344;6.240;2023-06-04T11:20:30;2.63;;;1.55;;
31836;SDS011;18401;49.344;6.240;2023-06-04T11:22:56;2.58;;;1.20;;
31836;SDS011;18401;49.344;6.240;2023-06-04T11:25:24;1.15;;;0.95;;
31836;SDS011;18401;49.344;6.240;2023-06-04T11:27:51;5.07;;;1.38;;
31836;SDS011;18401;49.344;6.240;2023-06-04T11:30:18;2.38;;;1.20;;
31836;SDS011;18401;49.344;6.240;2023-06-04T11:32:44;4.22;;;1.40;;
31836;SDS011;18401;49.344;6.240;2023-06-04T11:35:10;4.45;;;1.42;;
31836;SDS011;18401;49.344;6.240;2023-06-04T11:37:36;10.32;;;1.58;;
31836;SDS011;18401;49.344;6.240;2023-06-04T11:40:03;2.92;;;1.65;;
31836;SDS011;18401;49.344;6.240;2023-06-04T11:42:44;4.60;;;1.75;;
31836;SDS011;18401;49.344;6.240;2023-06-04T11:45:12;5.50;;;2.15;;
31836;SDS011;18401;49.344;6.240;2023-06-04T11:47:39;8.73;;;2.35;;
31836;SDS011;18401;49.344;6.240;2023-06-04T11:50:22;1.27;;;1.17;;
31836;SDS011;18401;49.344;6.240;2023-06-04T11:52:49;11.10;;;2.40;;
31836;SDS011;18401;49.344;6.240;2023-06-04T11:55:15;3.92;;;1.45;;
31836;SDS011;18401;49.344;6.240;2023-06-04T11:57:42;2.67;;;1.35;;
31836;SDS011;18401;49.344;6.240;2023-06-04T12:00:09;4.22;;;1.70;;
31836;SDS011;18401;49.344;6.240;2023-06-04T12:02:36;3.65;;;1.30;;
31836;SDS011;18401;49.344;6.240;2023-06-04T12:05:14;9.82;;;1.58;;
31836;SDS011;18401;49.344;6.240;2023-06-04T12:07:43;1.90;;;1.30;;
31836;SDS011;18401;49.344;6.240;2023-06-04T12:10:09;3.75;;;1.20;;
31836;SDS011;18401;49.344;6.240;2023-06-04T12:12:36;3.97;;;1.55;;
31836;SDS011;18401;49.344;6.240;2023-06-04T12:15:02;8.88;;;1.50;;
31836;SDS011;18401;49.344;6.240;2023-06-04T12:17:30;3.65;;;1.13;;
31836;SDS011;18401;49.344;6.240;2023-06-04T12:19:56;6.68;;;1.67;;
31836;SDS011;18401;49.344;6.240;2023-06-04T12:22:23;3.47;;;1.60;;
31836;SDS011;18401;49.344;6.240;2023-06-04T12:24:51;5.32;;;1.38;;
31836;SDS011;18401;49.344;6.240;2023-06-04T12:27:21;2.58;;;1.60;;
31836;SDS011;18401;49.344;6.240;2023-06-04T12:32:24;9.38;;;2.20;;
31836;SDS011;18401;49.344;6.240;2023-06-04T12:34:49;1.85;;;1.30;;
31836;SDS011;18401;49.344;6.240;2023-06-04T12:37:15;2.80;;;1.80;;
31836;SDS011;18401;49.344;6.240;2023-06-04T12:39:41;1.85;;;1.40;;
31836;SDS011;18401;49.344;6.240;2023-06-04T12:42:07;3.83;;;1.20;;
31836;SDS011;18401;49.344;6.240;2023-06-04T12:44:38;2.45;;;1.10;;
31836;SDS011;18401;49.344;6.240;2023-06-04T12:47:05;4.63;;;1.50;;
31836;SDS011;18401;49.344;6.240;2023-06-04T12:49:31;1.83;;;1.35;;
31836;SDS011;18401;49.344;6.240;2023-06-04T12:51:57;2.60;;;1.40;;
31836;SDS011;18401;49.344;6.240;2023-06-04T12:54:23;4.15;;;1.60;;
31836;SDS011;18401;49.344;6.240;2023-06-04T12:56:49;6.45;;;1.75;;
31836;SDS011;18401;49.344;6.240;2023-06-04T12:59:15;3.50;;;2.05;;
31836;SDS011;18401;49.344;6.240;2023-06-04T13:01:42;12.02;;;1.85;;
31836;SDS011;18401;49.344;6.240;2023-06-04T13:04:07;4.55;;;1.50;;
31836;SDS011;18401;49.344;6.240;2023-06-04T13:06:34;2.92;;;1.65;;
31836;SDS011;18401;49.344;6.240;2023-06-04T13:09:03;4.43;;;1.83;;
31836;SDS011;18401;49.344;6.240;2023-06-04T13:11:34;2.15;;;1.30;;
31836;SDS011;18401;49.344;6.240;2023-06-04T13:14:02;3.40;;;1.60;;
31836;SDS011;18401;49.344;6.240;2023-06-04T13:16:27;4.47;;;1.50;;
31836;SDS011;18401;49.344;6.240;2023-06-04T13:18:53;3.17;;;1.40;;
31836;SDS011;18401;49.344;6.240;2023-06-04T13:21:19;3.35;;;1.83;;
31836;SDS011;18401;49.344;6.240;2023-06-04T13:23:45;5.32;;;1.70;;
31836;SDS011;18401;49.344;6.240;2023-06-04T13:26:10;6.13;;;1.90;;
31836;SDS011;18401;49.344;6.240;2023-06-04T13:28:37;8.50;;;1.65;;
31836;SDS011;18401;49.344;6.240;2023-06-04T13:31:03;3.75;;;1.50;;
31836;SDS011;18401;49.344;6.240;2023-06-04T13:33:28;4.65;;;1.40;;
31836;SDS011;18401;49.344;6.240;2023-06-04T13:35:54;8.45;;;1.52;;
31836;SDS011;18401;49.344;6.240;2023-06-04T13:38:20;5.68;;;1.60;;
31836;SDS011;18401;49.344;6.240;2023-06-04T13:40:46;4.45;;;1.77;;
31836;SDS011;18401;49.344;6.240;2023-06-04T13:43:11;4.40;;;1.30;;
31836;SDS011;18401;49.344;6.240;2023-06-04T13:45:37;3.92;;;1.25;;
31836;SDS011;18401;49.344;6.240;2023-06-04T13:48:05;3.92;;;1.40;;
31836;SDS011;18401;49.344;6.240;2023-06-04T13:50:32;3.00;;;1.48;;
31836;SDS011;18401;49.344;6.240;2023-06-04T13:52:59;2.78;;;1.40;;
31836;SDS011;18401;49.344;6.240;2023-06-04T13:55:27;2.08;;;1.38;;
31836;SDS011;18401;49.344;6.240;2023-06-04T13:57:54;2.33;;;1.30;;
31836;SDS011;18401;49.344;6.240;2023-06-04T14:00:19;3.25;;;1.55;;
31836;SDS011;18401;49.344;6.240;2023-06-04T14:02:46;2.10;;;1.25;;
31836;SDS011;18401;49.344;6.240;2023-06-04T14:05:15;2.47;;;1.88;;
31836;SDS011;18401;49.344;6.240;2023-06-04T14:07:41;5.38;;;1.92;;
31836;SDS011;18401;49.344;6.240;2023-06-04T14:10:08;2.42;;;1.70;;
31836;SDS011;18401;49.344;6.240;2023-06-04T14:12:35;2.70;;;1.85;;
31836;SDS011;18401;49.344;6.240;2023-06-04T14:15:03;4.85;;;1.88;;
31836;SDS011;18401;49.344;6.240;2023-06-04T14:17:29;8.68;;;1.80;;
31836;SDS011;18401;49.344;6.240;2023-06-04T14:19:55;4.63;;;1.63;;
31836;SDS011;18401;49.344;6.240;2023-06-04T14:22:20;4.55;;;1.55;;
31836;SDS011;18401;49.344;6.240;2023-06-04T14:24:46;2.78;;;1.67;;
31836;SDS011;18401;49.344;6.240;2023-06-04T14:27:11;3.55;;;1.50;;
31836;SDS011;18401;49.344;6.240;2023-06-04T14:29:38;3.28;;;1.40;;
31836;SDS011;18401;49.344;6.240;2023-06-04T14:32:04;2.38;;;1.60;;
31836;SDS011;18401;49.344;6.240;2023-06-04T14:34:30;4.85;;;1.70;;
31836;SDS011;18401;49.344;6.240;2023-06-04T14:36:57;2.83;;;1.70;;
31836;SDS011;18401;49.344;6.240;2023-06-04T14:39:24;10.68;;;1.80;;
31836;SDS011;18401;49.344;6.240;2023-06-04T14:41:51;3.90;;;1.75;;
31836;SDS011;18401;49.344;6.240;2023-06-04T14:44:17;5.68;;;2.08;;
31836;SDS011;18401;49.344;6.240;2023-06-04T14:46:43;3.80;;;1.80;;
31836;SDS011;18401;49.344;6.240;2023-06-04T14:49:09;4.93;;;1.98;;
31836;SDS011;18401;49.344;6.240;2023-06-04T14:51:35;4.05;;;1.58;;
31836;SDS011;18401;49.344;6.240;2023-06-04T14:54:01;3.65;;;1.80;;
31836;SDS011;18401;49.344;6.240;2023-06-04T14:56:27;4.60;;;1.75;;
31836;SDS011;18401;49.344;6.240;2023-06-04T14:58:55;5.47;;;1.88;;
31836;SDS011;18401;49.344;6.240;2023-06-04T15:01:21;3.90;;;2.10;;